createdAt,value
2023-05-05T00:00:20.103Z,451.00
2023-05-05T00:01:20.125Z,450.00
2023-05-05T00:02:20.206Z,450.00
2023-05-05T00:03:20.236Z,450.00
2023-05-05T00:04:20.328Z,448.00
2023-05-05T00:05:20.324Z,446.00
2023-05-05T00:06:20.339Z,448.00
2023-05-05T00:07:20.378Z,448.00
2023-05-05T00:08:20.416Z,449.00
2023-05-05T00:09:20.498Z,450.00
2023-05-05T00:10:20.500Z,450.00
2023-05-05T00:11:20.540Z,450.00
2023-05-05T00:12:21.351Z,449.00
2023-05-05T00:13:20.614Z,447.00
2023-05-05T00:14:20.664Z,449.00
2023-05-05T00:15:20.677Z,447.00
2023-05-05T00:16:20.760Z,446.00
2023-05-05T00:17:20.771Z,446.00
2023-05-05T00:18:20.846Z,444.00
2023-05-05T00:19:20.887Z,444.00
2023-05-05T00:20:20.909Z,446.00
2023-05-05T00:21:20.972Z,445.00
2023-05-05T00:22:20.995Z,446.00
2023-05-05T00:23:21.066Z,447.00
2023-05-05T00:24:21.135Z,447.00
2023-05-05T00:25:21.140Z,446.00
2023-05-05T00:26:21.193Z,445.00
2023-05-05T00:27:21.254Z,445.00
2023-05-05T00:28:21.297Z,444.00
2023-05-05T00:29:21.352Z,445.00
2023-05-05T00:30:21.375Z,446.00
2023-05-05T00:31:21.490Z,447.00
2023-05-05T00:32:21.511Z,445.00
2023-05-05T00:33:21.541Z,446.00
2023-05-05T00:34:21.580Z,447.00
2023-05-05T00:35:21.624Z,448.00
2023-05-05T00:36:21.678Z,449.00
2023-05-05T00:37:21.718Z,448.00
2023-05-05T00:38:21.750Z,449.00
2023-05-05T00:39:21.828Z,447.00
2023-05-05T00:40:21.853Z,446.00
2023-05-05T00:41:21.924Z,444.00
2023-05-05T00:42:21.973Z,445.00
2023-05-05T00:43:22.010Z,445.00
2023-05-05T00:44:22.056Z,446.00
2023-05-05T00:45:22.088Z,447.00
2023-05-05T00:46:22.219Z,447.00
2023-05-05T00:47:22.172Z,447.00
2023-05-05T00:48:22.219Z,446.00
2023-05-05T00:49:22.310Z,443.00
2023-05-05T00:50:22.324Z,442.00
2023-05-05T00:51:22.364Z,441.00
2023-05-05T00:52:22.407Z,444.00
2023-05-05T00:53:22.445Z,440.00
2023-05-05T00:54:22.488Z,439.00
2023-05-05T00:55:22.531Z,437.00
2023-05-05T00:56:22.599Z,439.00
2023-05-05T00:57:22.635Z,440.00
2023-05-05T00:58:22.672Z,441.00
2023-05-05T00:59:22.726Z,442.00
2023-05-05T01:00:22.764Z,443.00
2023-05-05T01:01:22.854Z,444.00
2023-05-05T01:02:22.872Z,442.00
2023-05-05T01:03:22.966Z,439.00
2023-05-05T01:04:22.918Z,438.00
2023-05-05T01:05:22.995Z,438.00
2023-05-05T01:06:23.052Z,441.00
2023-05-05T01:07:23.072Z,437.00
2023-05-05T01:08:23.871Z,435.00
2023-05-05T01:09:23.169Z,438.00
2023-05-05T01:10:23.520Z,437.00
2023-05-05T01:11:23.258Z,435.00
2023-05-05T01:12:23.296Z,436.00
2023-05-05T01:13:23.397Z,438.00
2023-05-05T01:14:23.485Z,438.00
2023-05-05T01:15:23.461Z,441.00
2023-05-05T01:16:23.612Z,443.00
2023-05-05T01:17:23.635Z,444.00
2023-05-05T01:18:23.617Z,443.00
2023-05-05T01:19:23.670Z,442.00
2023-05-05T01:20:23.751Z,443.00
2023-05-05T01:21:23.782Z,441.00
2023-05-05T01:22:23.771Z,437.00
2023-05-05T01:23:23.852Z,436.00
2023-05-05T01:24:23.889Z,436.00
2023-05-05T01:25:23.954Z,441.00
2023-05-05T01:26:23.979Z,438.00
2023-05-05T01:27:24.063Z,435.00
2023-05-05T01:28:24.119Z,438.00
2023-05-05T01:29:24.144Z,439.00
2023-05-05T01:30:24.187Z,439.00
2023-05-05T01:31:24.251Z,439.00
2023-05-05T01:32:24.294Z,437.00
2023-05-05T01:33:24.338Z,437.00
2023-05-05T01:34:24.379Z,438.00
2023-05-05T01:35:24.432Z,439.00
2023-05-05T01:36:24.478Z,441.00
2023-05-05T01:37:24.537Z,441.00
2023-05-05T01:38:24.579Z,444.00
2023-05-05T01:39:24.621Z,443.00
2023-05-05T01:40:24.732Z,441.00
2023-05-05T01:41:24.750Z,440.00
2023-05-05T01:42:24.782Z,441.00
2023-05-05T01:43:24.845Z,441.00
2023-05-05T01:44:24.907Z,442.00
2023-05-05T01:45:24.933Z,443.00
2023-05-05T01:46:25.010Z,443.00
2023-05-05T01:47:25.170Z,443.00
2023-05-05T01:48:25.121Z,441.00
2023-05-05T01:49:25.181Z,442.00
2023-05-05T01:50:25.217Z,440.00
2023-05-05T01:51:25.261Z,440.00
2023-05-05T01:52:25.327Z,442.00
2023-05-05T01:53:25.371Z,442.00
2023-05-05T01:54:25.415Z,439.00
2023-05-05T01:55:25.472Z,440.00
2023-05-05T01:56:25.530Z,439.00
2023-05-05T01:57:25.540Z,437.00
2023-05-05T01:58:25.609Z,439.00
2023-05-05T01:59:25.630Z,438.00
2023-05-05T02:00:25.677Z,439.00
2023-05-05T02:01:25.777Z,439.00
2023-05-05T02:02:25.870Z,440.00
2023-05-05T02:03:25.898Z,441.00
2023-05-05T02:04:25.887Z,439.00
2023-05-05T02:05:25.950Z,436.00
2023-05-05T02:06:26.020Z,435.00
2023-05-05T02:07:26.061Z,434.00
2023-05-05T02:08:26.893Z,436.00
2023-05-05T02:09:26.150Z,436.00
2023-05-05T02:10:26.249Z,434.00
2023-05-05T02:11:26.312Z,435.00
2023-05-05T02:12:26.309Z,435.00
2023-05-05T02:13:26.413Z,436.00
2023-05-05T02:14:26.483Z,435.00
2023-05-05T02:15:26.500Z,437.00
2023-05-05T02:16:26.608Z,436.00
2023-05-05T02:17:26.646Z,436.00
2023-05-05T02:18:26.710Z,435.00
2023-05-05T02:19:27.393Z,436.00
2023-05-05T02:20:26.778Z,434.00
2023-05-05T02:21:26.880Z,434.00
2023-05-05T02:22:26.937Z,432.00
2023-05-05T02:23:27.002Z,432.00
2023-05-05T02:24:27.016Z,429.00
2023-05-05T02:25:27.081Z,431.00
2023-05-05T02:26:27.144Z,429.00
2023-05-05T02:27:27.209Z,431.00
2023-05-05T02:28:27.262Z,430.00
2023-05-05T02:29:27.312Z,428.00
2023-05-05T02:30:27.379Z,428.00
2023-05-05T02:31:27.518Z,427.00
2023-05-05T02:32:27.468Z,425.00
2023-05-05T02:33:27.526Z,427.00
2023-05-05T02:34:27.587Z,427.00
2023-05-05T02:35:27.636Z,427.00
2023-05-05T02:36:27.722Z,430.00
2023-05-05T02:37:27.768Z,431.00
2023-05-05T02:38:27.818Z,430.00
2023-05-05T02:39:27.868Z,431.00
2023-05-05T02:40:27.901Z,432.00
2023-05-05T02:41:27.982Z,432.00
2023-05-05T02:43:28.104Z,433.00
2023-05-05T02:44:28.192Z,430.00
2023-05-05T02:45:28.218Z,431.00
2023-05-05T02:46:28.365Z,430.00
2023-05-05T02:47:28.383Z,431.00
2023-05-05T02:48:28.415Z,430.00
2023-05-05T02:49:28.454Z,432.00
2023-05-05T02:50:28.501Z,434.00
2023-05-05T02:51:28.595Z,436.00
2023-05-05T02:52:28.633Z,435.00
2023-05-05T02:53:28.689Z,437.00
2023-05-05T02:54:28.734Z,438.00
2023-05-05T02:55:28.786Z,437.00
2023-05-05T02:56:28.855Z,437.00
2023-05-05T02:57:28.896Z,435.00
2023-05-05T02:58:28.970Z,434.00
2023-05-05T02:59:29.031Z,436.00
2023-05-05T03:00:29.109Z,438.00
2023-05-05T03:01:29.205Z,439.00
2023-05-05T03:02:29.303Z,436.00
2023-05-05T03:03:29.404Z,435.00
2023-05-05T03:04:29.382Z,435.00
2023-05-05T03:05:29.428Z,434.00
2023-05-05T03:06:29.470Z,434.00
2023-05-05T03:07:29.494Z,434.00
2023-05-05T03:08:29.614Z,432.00
2023-05-05T03:09:29.660Z,432.00
2023-05-05T03:10:29.701Z,434.00
2023-05-05T03:11:29.764Z,432.00
2023-05-05T03:12:29.858Z,432.00
2023-05-05T03:13:29.870Z,433.00
2023-05-05T03:14:32.115Z,434.00
2023-05-05T03:15:29.966Z,433.00
2023-05-05T03:16:29.970Z,435.00
2023-05-05T03:17:29.956Z,436.00
2023-05-05T03:18:29.913Z,436.00
2023-05-05T03:19:29.913Z,434.00
2023-05-05T03:20:29.924Z,433.00
2023-05-05T03:21:29.933Z,433.00
2023-05-05T03:22:29.901Z,429.00
2023-05-05T03:23:29.904Z,428.00
2023-05-05T03:24:29.891Z,428.00
2023-05-05T03:25:29.860Z,431.00
2023-05-05T03:26:29.872Z,434.00
2023-05-05T03:27:29.872Z,435.00
2023-05-05T03:28:29.819Z,436.00
2023-05-05T03:29:29.851Z,438.00
2023-05-05T03:30:29.795Z,438.00
2023-05-05T03:31:29.822Z,435.00
2023-05-05T03:32:29.866Z,435.00
2023-05-05T03:33:29.818Z,435.00
2023-05-05T03:34:29.811Z,435.00
2023-05-05T03:35:29.774Z,435.00
2023-05-05T03:36:29.811Z,436.00
2023-05-05T03:37:29.751Z,435.00
2023-05-05T03:38:29.779Z,437.00
2023-05-05T03:39:29.746Z,435.00
2023-05-05T03:40:43.015Z,435.00
2023-05-05T03:41:30.788Z,436.00
2023-05-05T03:42:29.731Z,438.00
2023-05-05T03:43:29.761Z,438.00
2023-05-05T03:44:29.712Z,440.00
2023-05-05T03:45:29.765Z,440.00
2023-05-05T03:46:29.728Z,440.00
2023-05-05T03:47:29.708Z,439.00
2023-05-05T03:48:29.713Z,443.00
2023-05-05T03:49:29.804Z,443.00
2023-05-05T03:50:29.831Z,442.00
2023-05-05T03:51:29.934Z,442.00
2023-05-05T03:52:29.937Z,441.00
2023-05-05T03:53:30.022Z,441.00
2023-05-05T03:54:30.096Z,440.00
2023-05-05T03:55:30.170Z,438.00
2023-05-05T03:56:30.257Z,438.00
2023-05-05T03:57:30.279Z,438.00
2023-05-05T03:58:30.324Z,436.00
2023-05-05T03:59:30.404Z,435.00
2023-05-05T04:00:30.495Z,437.00
2023-05-05T04:01:30.526Z,438.00
2023-05-05T04:02:30.628Z,438.00
2023-05-05T04:03:30.820Z,440.00
2023-05-05T04:04:30.737Z,442.00
2023-05-05T04:05:30.788Z,443.00
2023-05-05T04:06:30.877Z,445.00
2023-05-05T04:07:30.888Z,445.00
2023-05-05T04:08:30.983Z,443.00
2023-05-05T04:09:31.043Z,441.00
2023-05-05T04:10:31.073Z,443.00
2023-05-05T04:11:31.147Z,444.00
2023-05-05T04:12:31.193Z,443.00
2023-05-05T04:13:31.218Z,444.00
2023-05-05T04:14:31.250Z,444.00
2023-05-05T04:15:31.317Z,441.00
2023-05-05T04:16:31.394Z,436.00
2023-05-05T04:17:31.462Z,437.00
2023-05-05T04:18:31.520Z,435.00
2023-05-05T04:19:31.526Z,435.00
2023-05-05T04:20:31.594Z,436.00
2023-05-05T04:21:31.663Z,438.00
2023-05-05T04:22:31.683Z,439.00
2023-05-05T04:23:31.739Z,440.00
2023-05-05T04:24:31.809Z,440.00
2023-05-05T04:25:31.878Z,440.00
2023-05-05T04:26:32.500Z,443.00
2023-05-05T04:27:31.991Z,443.00
2023-05-05T04:28:32.030Z,444.00
2023-05-05T04:29:32.074Z,445.00
2023-05-05T04:30:32.089Z,444.00
2023-05-05T04:31:32.227Z,441.00
2023-05-05T04:32:32.254Z,439.00
2023-05-05T04:33:32.253Z,440.00
2023-05-05T04:34:32.337Z,440.00
2023-05-05T04:35:32.377Z,443.00
2023-05-05T04:36:32.488Z,441.00
2023-05-05T04:37:32.933Z,440.00
2023-05-05T04:38:32.784Z,439.00
2023-05-05T04:39:32.615Z,440.00
2023-05-05T04:40:32.694Z,441.00
2023-05-05T04:41:32.767Z,442.00
2023-05-05T04:42:32.811Z,441.00
2023-05-05T04:43:32.851Z,443.00
2023-05-05T04:44:32.893Z,443.00
2023-05-05T04:45:32.982Z,443.00
2023-05-05T04:46:33.106Z,444.00
2023-05-05T04:47:33.084Z,444.00
2023-05-05T04:48:33.126Z,445.00
2023-05-05T04:49:33.235Z,447.00
2023-05-05T04:50:33.239Z,445.00
2023-05-05T04:51:33.246Z,445.00
2023-05-05T04:52:33.307Z,445.00
2023-05-05T04:53:33.375Z,445.00
2023-05-05T04:54:33.419Z,449.00
2023-05-05T04:55:33.455Z,448.00
2023-05-05T04:56:33.579Z,445.00
2023-05-05T04:57:34.467Z,442.00
2023-05-05T04:58:33.661Z,441.00
2023-05-05T04:59:33.723Z,442.00
2023-05-05T05:00:33.803Z,441.00
2023-05-05T05:01:35.717Z,442.00
2023-05-05T05:02:33.887Z,441.00
2023-05-05T05:03:33.968Z,442.00
2023-05-05T05:04:33.833Z,442.00
2023-05-05T05:05:33.813Z,442.00
2023-05-05T05:06:33.804Z,442.00
2023-05-05T05:07:33.817Z,440.00
2023-05-05T05:08:33.829Z,438.00
2023-05-05T05:09:33.800Z,437.00
2023-05-05T05:10:33.783Z,437.00
2023-05-05T05:11:33.776Z,437.00
2023-05-05T05:12:33.813Z,438.00
2023-05-05T05:13:33.755Z,441.00
2023-05-05T05:14:33.743Z,442.00
2023-05-05T05:15:33.734Z,442.00
2023-05-05T05:16:34.027Z,442.00
2023-05-05T05:17:33.774Z,444.00
2023-05-05T05:18:33.716Z,445.00
2023-05-05T05:19:33.726Z,446.00
2023-05-05T05:20:33.748Z,445.00
2023-05-05T05:21:33.710Z,447.00
2023-05-05T05:22:33.693Z,448.00
2023-05-05T05:23:33.726Z,444.00
2023-05-05T05:24:33.673Z,444.00
2023-05-05T05:25:33.690Z,442.00
2023-05-05T05:26:33.685Z,442.00
2023-05-05T05:27:33.684Z,441.00
2023-05-05T05:28:33.654Z,442.00
2023-05-05T05:29:33.668Z,443.00
2023-05-05T05:30:33.638Z,445.00
2023-05-05T05:31:33.685Z,441.00
2023-05-05T05:32:33.676Z,441.00
2023-05-05T05:33:33.670Z,444.00
2023-05-05T05:34:33.649Z,446.00
2023-05-05T05:35:33.658Z,448.00
2023-05-05T05:36:33.688Z,452.00
2023-05-05T05:37:33.696Z,463.00
2023-05-05T05:38:33.706Z,485.00
2023-05-05T05:39:33.788Z,472.00
2023-05-05T05:40:33.867Z,473.00
2023-05-05T05:41:33.910Z,481.00
2023-05-05T05:42:33.952Z,567.00
2023-05-05T05:43:34.036Z,575.00
2023-05-05T05:44:34.071Z,635.00
2023-05-05T05:45:34.113Z,652.00
2023-05-05T05:46:34.249Z,658.00
2023-05-05T05:47:34.245Z,694.00
2023-05-05T05:48:34.270Z,878.00
2023-05-05T05:49:34.304Z,836.00
2023-05-05T05:50:34.304Z,831.00
2023-05-05T05:51:34.365Z,878.00
2023-05-05T05:52:34.409Z,875.00
2023-05-05T05:53:34.400Z,861.00
2023-05-05T05:54:34.434Z,960.00
2023-05-05T05:55:34.498Z,990.00
2023-05-05T05:56:34.486Z,980.00
2023-05-05T05:57:34.530Z,994.00
2023-05-05T05:58:34.514Z,1044.00
2023-05-05T05:59:34.520Z,1067.00
2023-05-05T06:00:34.543Z,1073.00
2023-05-05T06:01:35.007Z,1081.00
2023-05-05T06:02:34.643Z,1079.00
2023-05-05T06:03:34.739Z,1115.00
2023-05-05T06:04:34.655Z,1133.00
2023-05-05T06:05:34.558Z,1133.00
2023-05-05T06:06:34.554Z,1143.00
2023-05-05T06:07:34.551Z,1172.00
2023-05-05T06:08:34.578Z,1179.00
2023-05-05T06:09:34.541Z,1201.00
2023-05-05T06:10:34.799Z,1228.00
2023-05-05T06:11:34.544Z,1278.00
2023-05-05T06:12:34.594Z,1278.00
2023-05-05T06:13:34.567Z,1281.00
2023-05-05T06:14:34.539Z,1314.00
2023-05-05T06:15:34.615Z,1334.00
2023-05-05T06:16:34.711Z,1346.00
2023-05-05T06:17:34.681Z,1360.00
2023-05-05T06:18:34.714Z,1370.00
2023-05-05T06:19:34.755Z,1390.00
2023-05-05T06:20:34.798Z,1402.00
2023-05-05T06:21:34.880Z,1415.00
2023-05-05T06:22:34.943Z,1430.00
2023-05-05T06:23:35.003Z,1451.00
2023-05-05T06:24:35.070Z,1466.00
2023-05-05T06:25:35.136Z,1487.00
2023-05-05T06:26:35.193Z,1515.00
2023-05-05T06:27:35.252Z,1537.00
2023-05-05T06:28:35.315Z,1547.00
2023-05-05T06:29:35.339Z,1563.00
2023-05-05T06:30:35.389Z,1579.00
2023-05-05T06:31:35.493Z,1591.00
2023-05-05T06:32:35.533Z,1600.00
2023-05-05T06:33:35.580Z,1610.00
2023-05-05T06:34:35.654Z,1619.00
2023-05-05T06:35:35.680Z,1634.00
2023-05-05T06:36:35.802Z,1645.00
2023-05-05T06:37:35.803Z,1656.00
2023-05-05T06:38:35.847Z,1672.00
2023-05-05T06:39:35.910Z,1707.00
2023-05-05T06:40:35.952Z,1733.00
2023-05-05T06:41:36.006Z,1747.00
2023-05-05T06:42:36.093Z,1767.00
2023-05-05T06:43:36.106Z,1797.00
2023-05-05T06:44:36.152Z,1794.00
2023-05-05T06:45:36.225Z,1807.00
2023-05-05T06:46:36.552Z,1815.00
2023-05-05T06:47:36.302Z,1818.00
2023-05-05T06:48:36.343Z,1841.00
2023-05-05T06:49:36.399Z,1888.00
2023-05-05T06:50:36.449Z,1894.00
2023-05-05T06:51:36.516Z,1666.00
2023-05-05T06:52:36.525Z,1735.00
2023-05-05T06:53:36.617Z,1726.00
2023-05-05T06:54:36.647Z,1719.00
2023-05-05T06:55:36.715Z,1723.00
2023-05-05T06:56:36.812Z,1739.00
2023-05-05T06:57:36.824Z,1716.00
2023-05-05T06:58:36.944Z,1714.00
2023-05-05T06:59:36.971Z,1728.00
2023-05-05T07:00:37.124Z,1725.00
2023-05-05T07:01:37.163Z,1705.00
2023-05-05T07:02:37.190Z,1638.00
2023-05-05T07:03:37.240Z,1685.00
2023-05-05T07:04:37.276Z,1705.00
2023-05-05T07:05:37.349Z,1708.00
2023-05-05T07:06:37.390Z,1709.00
2023-05-05T07:07:37.435Z,1707.00
2023-05-05T07:08:37.476Z,1701.00
2023-05-05T07:09:37.558Z,1695.00
2023-05-05T07:10:37.921Z,1691.00
2023-05-05T07:11:37.653Z,1677.00
2023-05-05T07:12:37.764Z,1513.00
2023-05-05T07:13:37.778Z,1549.00
2023-05-05T07:14:37.818Z,1613.00
2023-05-05T07:15:37.885Z,1514.00
2023-05-05T07:16:38.050Z,1525.00
2023-05-05T07:17:38.077Z,1536.00
2023-05-05T07:18:38.032Z,1501.00
2023-05-05T07:19:38.104Z,1528.00
2023-05-05T07:20:38.167Z,1552.00
2023-05-05T07:21:38.183Z,1560.00
2023-05-05T07:22:38.257Z,1512.00
2023-05-05T07:23:38.338Z,1439.00
2023-05-05T07:24:38.378Z,1423.00
2023-05-05T07:25:38.439Z,1453.00
2023-05-05T07:26:38.502Z,1477.00
2023-05-05T07:27:38.589Z,1365.00
2023-05-05T07:28:38.633Z,1392.00
2023-05-05T07:29:38.684Z,1396.00
2023-05-05T07:30:38.774Z,1343.00
2023-05-05T07:31:38.875Z,1355.00
2023-05-05T07:32:38.895Z,1412.00
2023-05-05T07:33:39.003Z,1404.00
2023-05-05T07:34:38.996Z,1416.00
2023-05-05T07:35:39.069Z,1421.00
2023-05-05T07:36:39.078Z,1425.00
2023-05-05T07:37:39.124Z,1362.00
2023-05-05T07:38:39.218Z,1354.00
2023-05-05T07:39:39.234Z,1359.00
2023-05-05T07:40:39.292Z,1427.00
2023-05-05T07:41:39.545Z,1410.00
2023-05-05T07:42:39.411Z,1403.00
2023-05-05T07:43:39.712Z,1398.00
2023-05-05T07:44:39.548Z,1398.00
2023-05-05T07:45:39.616Z,1344.00
2023-05-05T07:46:39.692Z,1327.00
2023-05-05T07:47:39.753Z,1335.00
2023-05-05T07:48:39.776Z,1299.00
2023-05-05T07:49:39.859Z,1281.00
2023-05-05T07:50:39.852Z,1380.00
2023-05-05T07:51:39.924Z,1408.00
2023-05-05T07:53:39.984Z,1397.00
2023-05-05T07:54:39.974Z,1429.00
2023-05-05T07:55:40.006Z,1447.00
2023-05-05T07:56:39.979Z,1462.00
2023-05-05T07:57:39.968Z,1457.00
2023-05-05T07:58:39.928Z,1448.00
2023-05-05T07:59:39.932Z,1426.00
2023-05-05T08:00:39.935Z,1467.00
2023-05-05T08:01:39.923Z,1503.00
2023-05-05T08:02:40.072Z,1488.00
2023-05-05T08:03:40.101Z,1473.00
2023-05-05T08:04:39.918Z,1487.00
2023-05-05T08:05:40.023Z,1510.00
2023-05-05T08:06:39.959Z,1527.00
2023-05-05T08:07:39.905Z,1464.00
2023-05-05T08:08:39.869Z,1482.00
2023-05-05T08:09:39.852Z,1530.00
2023-05-05T08:10:39.845Z,1508.00
2023-05-05T08:11:39.856Z,1504.00
2023-05-05T08:12:39.964Z,1497.00
2023-05-05T08:13:39.854Z,1513.00
2023-05-05T08:14:39.850Z,1522.00
2023-05-05T08:15:39.890Z,1521.00
2023-05-05T08:16:39.835Z,1521.00
2023-05-05T08:17:39.841Z,1524.00
2023-05-05T08:18:39.803Z,1524.00
2023-05-05T08:19:39.798Z,1528.00
2023-05-05T08:20:39.782Z,1556.00
2023-05-05T08:21:39.865Z,1524.00
2023-05-05T08:22:39.783Z,1505.00
2023-05-05T08:23:39.801Z,1499.00
2023-05-05T08:24:39.786Z,1568.00
2023-05-05T08:25:39.870Z,1555.00
2023-05-05T08:26:39.742Z,1572.00
2023-05-05T08:27:39.766Z,1630.00
2023-05-05T08:28:39.752Z,1644.00
2023-05-05T08:29:39.745Z,1634.00
2023-05-05T08:30:39.708Z,1631.00
2023-05-05T08:31:39.827Z,1629.00
2023-05-05T08:32:39.810Z,1633.00
2023-05-05T08:33:39.708Z,1683.00
2023-05-05T08:34:39.659Z,1665.00
2023-05-05T08:35:39.669Z,1669.00
2023-05-05T08:36:39.713Z,1661.00
2023-05-05T08:37:40.183Z,1482.00
2023-05-05T08:38:39.688Z,1462.00
2023-05-05T08:39:39.681Z,1451.00
2023-05-05T08:40:39.687Z,1456.00
2023-05-05T08:41:39.648Z,1475.00
2023-05-05T08:42:39.801Z,1486.00
2023-05-05T08:43:39.645Z,1495.00
2023-05-05T08:44:39.669Z,1503.00
2023-05-05T08:45:39.620Z,1360.00
2023-05-05T08:46:39.626Z,1318.00
2023-05-05T08:47:40.215Z,1280.00
2023-05-05T08:48:39.593Z,1230.00
2023-05-05T08:49:39.566Z,1063.00
2023-05-05T08:50:39.559Z,1067.00
2023-05-05T08:51:39.579Z,963.00
2023-05-05T08:52:39.640Z,973.00
2023-05-05T08:53:39.687Z,905.00
2023-05-05T08:54:39.575Z,984.00
2023-05-05T08:55:39.580Z,969.00
2023-05-05T08:56:39.546Z,976.00
2023-05-05T08:57:39.547Z,983.00
2023-05-05T08:58:39.513Z,981.00
2023-05-05T08:59:39.518Z,976.00
2023-05-05T09:00:39.535Z,1032.00
2023-05-05T09:01:39.520Z,1042.00
2023-05-05T09:02:39.672Z,1063.00
2023-05-05T09:03:39.504Z,1082.00
2023-05-05T09:04:39.480Z,1049.00
2023-05-05T09:05:39.464Z,1049.00
2023-05-05T09:06:39.438Z,1026.00
2023-05-05T09:07:39.595Z,1028.00
2023-05-05T09:08:39.466Z,1078.00
2023-05-05T09:09:39.529Z,1064.00
2023-05-05T09:10:39.437Z,1072.00
2023-05-05T09:11:39.425Z,1077.00
2023-05-05T09:12:39.495Z,1089.00
2023-05-05T09:13:39.408Z,1103.00
2023-05-05T09:14:39.425Z,1118.00
2023-05-05T09:15:39.394Z,1122.00
2023-05-05T09:16:39.433Z,1127.00
2023-05-05T09:17:39.434Z,1133.00
2023-05-05T09:18:39.380Z,1135.00
2023-05-05T09:19:39.350Z,1133.00
2023-05-05T09:20:39.361Z,1145.00
2023-05-05T09:21:39.348Z,1157.00
2023-05-05T09:22:39.618Z,1162.00
2023-05-05T09:23:39.332Z,1174.00
2023-05-05T09:24:39.341Z,1199.00
2023-05-05T09:25:39.401Z,1204.00
2023-05-05T09:26:39.323Z,1212.00
2023-05-05T09:27:39.613Z,1223.00
2023-05-05T09:28:39.368Z,1217.00
2023-05-05T09:29:39.445Z,1215.00
2023-05-05T09:30:39.505Z,1218.00
2023-05-05T09:31:39.566Z,1255.00
2023-05-05T09:32:39.671Z,1251.00
2023-05-05T09:33:39.682Z,1259.00
2023-05-05T09:34:39.741Z,1266.00
2023-05-05T09:35:39.772Z,1274.00
2023-05-05T09:36:39.871Z,1295.00
2023-05-05T09:37:40.111Z,1292.00
2023-05-05T09:38:39.977Z,1306.00
2023-05-05T09:39:40.037Z,1304.00
2023-05-05T09:40:40.100Z,1308.00
2023-05-05T09:41:40.209Z,1325.00
2023-05-05T09:42:40.609Z,1371.00
2023-05-05T09:43:40.242Z,1366.00
2023-05-05T09:44:40.314Z,1361.00
2023-05-05T09:45:40.351Z,1365.00
2023-05-05T09:46:40.474Z,1377.00
2023-05-05T09:47:40.505Z,1389.00
2023-05-05T09:48:40.533Z,1437.00
2023-05-05T09:49:40.547Z,1480.00
2023-05-05T09:50:40.636Z,1531.00
2023-05-05T09:51:40.688Z,1549.00
2023-05-05T09:52:40.717Z,1569.00
2023-05-05T09:53:40.764Z,1640.00
2023-05-05T09:54:40.803Z,1629.00
2023-05-05T09:55:40.882Z,1617.00
2023-05-05T09:56:40.924Z,1615.00
2023-05-05T09:57:41.153Z,1625.00
2023-05-05T09:58:41.007Z,1645.00
2023-05-05T09:59:41.056Z,1660.00
2023-05-05T10:00:41.090Z,1709.00
2023-05-05T10:01:41.279Z,1728.00
2023-05-05T10:02:41.219Z,1714.00
2023-05-05T10:03:41.223Z,1713.00
2023-05-05T10:04:41.319Z,1714.00
2023-05-05T10:05:41.300Z,1743.00
2023-05-05T10:06:41.331Z,1762.00
2023-05-05T10:07:41.368Z,1773.00
2023-05-05T10:08:41.444Z,1747.00
2023-05-05T10:09:41.482Z,1761.00
2023-05-05T10:10:41.502Z,1768.00
2023-05-05T10:11:41.539Z,1760.00
2023-05-05T10:12:41.572Z,1763.00
2023-05-05T10:13:41.648Z,1780.00
2023-05-05T10:14:41.635Z,1858.00
2023-05-05T10:15:41.667Z,1863.00
2023-05-05T10:16:41.710Z,1864.00
2023-05-05T10:17:47.895Z,1866.00
2023-05-05T10:18:42.702Z,1874.00
2023-05-05T10:19:41.728Z,1888.00
2023-05-05T10:20:41.698Z,1910.00
2023-05-05T10:21:42.180Z,1935.00
2023-05-05T10:22:41.742Z,1956.00
2023-05-05T10:23:41.726Z,1951.00
2023-05-05T10:24:41.758Z,1960.00
2023-05-05T10:25:41.783Z,1964.00
2023-05-05T10:26:41.790Z,1974.00
2023-05-05T10:27:41.856Z,1974.00
2023-05-05T10:28:41.842Z,1974.00
2023-05-05T10:29:42.084Z,1980.00
2023-05-05T10:30:41.874Z,1983.00
2023-05-05T10:31:41.934Z,1987.00
2023-05-05T10:33:42.032Z,1982.00
2023-05-05T10:34:41.949Z,1989.00
2023-05-05T10:35:41.878Z,1995.00
2023-05-05T10:36:41.864Z,1938.00
2023-05-05T10:37:41.864Z,1918.00
2023-05-05T10:38:41.862Z,1899.00
2023-05-05T10:39:41.865Z,1825.00
2023-05-05T10:40:41.835Z,1821.00
2023-05-05T10:41:41.860Z,1823.00
2023-05-05T10:42:41.809Z,1818.00
2023-05-05T10:43:41.834Z,1819.00
2023-05-05T10:44:41.809Z,1834.00
2023-05-05T10:45:41.988Z,1849.00
2023-05-05T10:46:41.864Z,1859.00
2023-05-05T10:47:41.843Z,1865.00
2023-05-05T10:48:41.810Z,1875.00
2023-05-05T10:49:41.766Z,1885.00
2023-05-05T10:50:41.746Z,1890.00
2023-05-05T10:51:41.776Z,1890.00
2023-05-05T10:52:41.730Z,1895.00
2023-05-05T10:53:41.736Z,1894.00
2023-05-05T10:54:41.743Z,1913.00
2023-05-05T10:55:41.698Z,1944.00
2023-05-05T10:56:41.706Z,1959.00
2023-05-05T10:57:41.743Z,1961.00
2023-05-05T10:58:58.264Z,1951.00
2023-05-05T10:59:42.716Z,1941.00
2023-05-05T11:00:41.708Z,1933.00
2023-05-05T11:01:41.738Z,1930.00
2023-05-05T11:02:41.753Z,1928.00
2023-05-05T11:03:41.751Z,1934.00
2023-05-05T11:04:41.684Z,1934.00
2023-05-05T11:05:41.677Z,1935.00
2023-05-05T11:06:41.668Z,1937.00
2023-05-05T11:07:41.662Z,1945.00
2023-05-05T11:08:41.638Z,1942.00
2023-05-05T11:09:41.624Z,1944.00
2023-05-05T11:10:41.631Z,1957.00
2023-05-05T11:11:41.620Z,1965.00
2023-05-05T11:12:41.635Z,1962.00
2023-05-05T11:13:41.612Z,1964.00
2023-05-05T11:14:41.621Z,1954.00
2023-05-05T11:15:41.685Z,1912.00
2023-05-05T11:16:41.620Z,1873.00
2023-05-05T11:17:41.717Z,1858.00
2023-05-05T11:18:41.612Z,1852.00
2023-05-05T11:19:41.559Z,1849.00
2023-05-05T11:20:41.530Z,1853.00
2023-05-05T11:21:41.559Z,1861.00
2023-05-05T11:22:41.571Z,1867.00
2023-05-05T11:23:41.541Z,1880.00
2023-05-05T11:24:41.543Z,1879.00
2023-05-05T11:25:41.497Z,1878.00
2023-05-05T11:26:41.528Z,1874.00
2023-05-05T11:27:41.483Z,1894.00
2023-05-05T11:28:41.666Z,2052.00
2023-05-05T11:29:41.495Z,2032.00
2023-05-05T11:30:41.502Z,1939.00
2023-05-05T11:31:41.536Z,1876.00
2023-05-05T11:32:41.485Z,1856.00
2023-05-05T11:33:41.735Z,1782.00
2023-05-05T11:34:41.472Z,1741.00
2023-05-05T11:35:41.448Z,1658.00
2023-05-05T11:36:41.413Z,1624.00
2023-05-05T11:37:41.428Z,1599.00
2023-05-05T11:38:41.469Z,1582.00
2023-05-05T11:39:41.436Z,1571.00
2023-05-05T11:40:41.466Z,1529.00
2023-05-05T11:41:41.468Z,1532.00
2023-05-05T11:42:41.460Z,1535.00
2023-05-05T11:43:41.507Z,1547.00
2023-05-05T11:44:41.537Z,1493.00
2023-05-05T11:45:41.523Z,1459.00
2023-05-05T11:46:41.590Z,1444.00
2023-05-05T11:47:41.614Z,1428.00
2023-05-05T11:48:41.593Z,1425.00
2023-05-05T11:49:41.674Z,1424.00
2023-05-05T11:50:41.652Z,1419.00
2023-05-05T11:51:41.669Z,1415.00
2023-05-05T11:52:41.689Z,1415.00
2023-05-05T11:53:41.697Z,1409.00
2023-05-05T11:54:41.749Z,1397.00
2023-05-05T11:55:41.756Z,1385.00
2023-05-05T11:56:41.752Z,1374.00
2023-05-05T11:57:41.807Z,1358.00
2023-05-05T11:58:41.837Z,1360.00
2023-05-05T11:59:41.826Z,1356.00
2023-05-05T12:00:41.840Z,1344.00
2023-05-05T12:01:41.882Z,1275.00
2023-05-05T12:02:41.997Z,1267.00
2023-05-05T12:03:42.052Z,1277.00
2023-05-05T12:04:42.013Z,1272.00
2023-05-05T12:05:42.080Z,1244.00
2023-05-05T12:06:41.970Z,1230.00
2023-05-05T12:07:42.031Z,1219.00
2023-05-05T12:08:42.022Z,1216.00
2023-05-05T12:09:42.020Z,1214.00
2023-05-05T12:10:42.077Z,1214.00
2023-05-05T12:11:42.119Z,1208.00
2023-05-05T12:12:42.185Z,1179.00
2023-05-05T12:13:42.143Z,1165.00
2023-05-05T12:14:42.183Z,1141.00
2023-05-05T12:15:42.223Z,1137.00
2023-05-05T12:16:42.326Z,1138.00
2023-05-05T12:17:42.303Z,1136.00
2023-05-05T12:18:42.321Z,1126.00
2023-05-05T12:19:42.306Z,1119.00